createdAt,value
2022-10-31T00:00:47.642Z,89.40
2022-10-31T00:03:14.355Z,89.40
2022-10-31T00:05:45.102Z,89.40
2022-10-31T00:08:11.777Z,89.40
2022-10-31T00:10:39.697Z,89.40
2022-10-31T00:13:07.009Z,89.40
2022-10-31T00:15:34.971Z,89.40
2022-10-31T00:18:02.336Z,89.50
2022-10-31T00:20:29.183Z,89.50
2022-10-31T00:22:59.007Z,89.50
2022-10-31T00:25:25.897Z,89.60
2022-10-31T00:27:52.596Z,89.50
2022-10-31T00:30:19.452Z,89.50
2022-10-31T00:32:46.119Z,89.60
2022-10-31T00:35:12.775Z,89.60
2022-10-31T00:37:39.434Z,90.10
2022-10-31T00:40:06.779Z,89.50
2022-10-31T00:42:33.514Z,89.50
2022-10-31T00:45:00.236Z,89.60
2022-10-31T00:47:26.985Z,89.60
2022-10-31T00:49:53.647Z,89.70
2022-10-31T00:52:20.327Z,89.60
2022-10-31T00:54:46.988Z,89.70
2022-10-31T00:57:13.647Z,89.70
2022-10-31T00:59:40.341Z,89.60
2022-10-31T01:02:07.171Z,89.70
2022-10-31T01:04:33.993Z,89.70
2022-10-31T01:07:00.682Z,89.70
2022-10-31T01:09:27.344Z,89.80
2022-10-31T01:11:54.040Z,89.80
2022-10-31T01:14:20.680Z,89.80
2022-10-31T01:16:47.351Z,89.70
2022-10-31T01:19:14.020Z,89.70
2022-10-31T01:21:40.708Z,89.70
2022-10-31T01:24:07.743Z,89.80
2022-10-31T01:26:34.422Z,89.70
2022-10-31T01:29:02.665Z,89.80
2022-10-31T01:31:31.014Z,89.80
2022-10-31T01:33:57.954Z,89.80
2022-10-31T01:36:29.926Z,89.80
2022-10-31T01:38:58.539Z,89.80
2022-10-31T01:41:27.627Z,89.80
2022-10-31T01:44:25.004Z,89.90
2022-10-31T01:47:02.867Z,89.90
2022-10-31T01:49:42.917Z,89.90
2022-10-31T01:52:12.726Z,89.80
2022-10-31T01:54:42.370Z,89.80
2022-10-31T01:57:11.002Z,89.80
2022-10-31T01:59:40.218Z,89.80
2022-10-31T02:02:07.325Z,89.80
2022-10-31T02:04:34.108Z,89.90
2022-10-31T02:07:04.839Z,89.80
2022-10-31T02:09:32.290Z,89.80
2022-10-31T02:11:59.326Z,89.70
2022-10-31T02:14:27.976Z,89.80
2022-10-31T02:16:55.240Z,89.90
2022-10-31T02:19:31.369Z,89.80
2022-10-31T02:22:18.557Z,89.90
2022-10-31T02:25:09.872Z,89.70
2022-10-31T02:28:04.880Z,89.90
2022-10-31T02:30:57.790Z,90.00
2022-10-31T02:33:37.220Z,89.90
2022-10-31T02:36:03.930Z,89.90
2022-10-31T02:38:42.384Z,89.80
2022-10-31T02:41:21.067Z,89.90
2022-10-31T02:44:13.903Z,90.00
2022-10-31T02:46:49.755Z,89.90
2022-10-31T02:49:32.177Z,89.90
2022-10-31T02:51:59.135Z,90.00
2022-10-31T02:54:27.547Z,89.90
2022-10-31T02:57:01.678Z,89.90
2022-10-31T02:59:28.346Z,89.90
2022-10-31T03:02:12.911Z,89.90
2022-10-31T03:04:42.805Z,90.00
2022-10-31T03:07:17.038Z,90.00
2022-10-31T03:10:14.281Z,90.00
2022-10-31T03:12:44.469Z,90.00
2022-10-31T03:15:34.852Z,90.00
2022-10-31T03:18:12.974Z,90.00
2022-10-31T03:20:46.846Z,90.00
2022-10-31T03:23:16.608Z,90.00
2022-10-31T03:25:43.599Z,90.00
2022-10-31T03:28:11.129Z,90.00
2022-10-31T03:30:39.088Z,90.00
2022-10-31T03:33:08.526Z,90.00
2022-10-31T03:35:35.207Z,90.00
2022-10-31T03:38:06.862Z,90.00
2022-10-31T03:40:34.493Z,90.00
2022-10-31T03:43:04.726Z,90.00
2022-10-31T03:45:31.846Z,90.00
2022-10-31T03:47:59.624Z,90.00
2022-10-31T03:50:29.204Z,90.00
2022-10-31T03:52:56.790Z,90.00
2022-10-31T03:55:29.542Z,90.00
2022-10-31T03:57:56.108Z,90.40
2022-10-31T04:00:22.793Z,90.00
2022-10-31T04:03:16.888Z,90.00
2022-10-31T04:05:44.979Z,90.00
2022-10-31T04:08:13.975Z,90.00
2022-10-31T04:10:40.661Z,90.00
2022-10-31T04:13:15.308Z,90.10
2022-10-31T04:15:42.003Z,90.10
2022-10-31T04:18:08.649Z,90.10
2022-10-31T04:20:36.889Z,90.10
2022-10-31T04:23:03.904Z,90.10
2022-10-31T04:25:30.878Z,90.10
2022-10-31T04:27:57.951Z,90.20
2022-10-31T04:30:24.856Z,90.20
2022-10-31T04:32:51.536Z,90.20
2022-10-31T04:35:18.191Z,90.50
2022-10-31T04:37:44.910Z,90.20
2022-10-31T04:40:11.999Z,90.20
2022-10-31T04:42:38.731Z,90.20
2022-10-31T04:45:06.020Z,90.20
2022-10-31T04:47:35.777Z,90.20
2022-10-31T04:50:02.854Z,90.20
2022-10-31T04:52:29.516Z,90.20
2022-10-31T04:54:56.174Z,90.20
2022-10-31T04:57:22.939Z,90.20
2022-10-31T04:59:49.632Z,90.20
2022-10-31T05:02:16.462Z,90.30
2022-10-31T05:04:43.270Z,90.30
2022-10-31T05:07:09.969Z,90.30
2022-10-31T05:09:36.649Z,90.30
2022-10-31T05:12:03.433Z,90.30
2022-10-31T05:14:30.104Z,90.40
2022-10-31T05:16:56.771Z,90.40
2022-10-31T05:19:23.519Z,90.40
2022-10-31T05:21:50.196Z,90.40
2022-10-31T05:24:16.831Z,90.40
2022-10-31T05:26:43.576Z,90.40
2022-10-31T05:29:10.388Z,90.40
2022-10-31T05:31:37.108Z,90.40
2022-10-31T05:34:03.806Z,90.40
2022-10-31T05:36:30.552Z,90.40
2022-10-31T05:38:57.379Z,90.40
2022-10-31T05:41:24.056Z,90.40
2022-10-31T05:43:50.739Z,90.40
2022-10-31T05:46:17.409Z,90.40
2022-10-31T05:48:44.152Z,90.50
2022-10-31T05:51:10.823Z,90.40
2022-10-31T05:53:37.502Z,90.40
2022-10-31T05:56:04.333Z,90.40
2022-10-31T05:58:30.983Z,90.40
2022-10-31T06:00:57.633Z,90.50
2022-10-31T06:03:24.289Z,90.50
2022-10-31T06:05:54.178Z,90.60
2022-10-31T06:08:22.181Z,90.50
2022-10-31T06:10:48.880Z,90.50
2022-10-31T06:13:15.536Z,90.50
2022-10-31T06:15:45.371Z,90.50
2022-10-31T06:18:12.068Z,90.60
2022-10-31T06:20:38.726Z,90.60
2022-10-31T06:23:05.818Z,90.60
2022-10-31T06:25:32.657Z,90.60
2022-10-31T06:27:59.618Z,90.60
2022-10-31T06:30:26.352Z,90.70
2022-10-31T06:32:53.072Z,90.60
2022-10-31T06:35:19.965Z,90.60
2022-10-31T06:37:56.013Z,90.60
2022-10-31T06:40:22.855Z,90.70
2022-10-31T06:43:00.268Z,90.60
2022-10-31T06:45:27.057Z,90.70
2022-10-31T06:48:15.648Z,90.60
2022-10-31T06:50:41.073Z,90.60
2022-10-31T06:53:11.813Z,90.60
2022-10-31T06:55:38.842Z,90.70
2022-10-31T06:58:05.926Z,90.70
2022-10-31T07:00:33.033Z,90.70
2022-10-31T07:03:05.057Z,90.70
2022-10-31T07:05:31.816Z,90.70
2022-10-31T07:08:03.710Z,90.70
2022-10-31T07:10:34.297Z,90.70
2022-10-31T07:13:05.759Z,90.70
2022-10-31T07:15:35.270Z,91.00
2022-10-31T07:18:03.990Z,90.80
2022-10-31T07:20:31.764Z,90.70
2022-10-31T07:22:58.710Z,90.80
2022-10-31T07:25:25.443Z,90.70
2022-10-31T07:27:52.122Z,90.80
2022-10-31T07:30:18.948Z,90.80
2022-10-31T07:32:46.990Z,90.70
2022-10-31T07:35:16.629Z,90.80
2022-10-31T07:37:43.377Z,90.80
2022-10-31T07:40:10.647Z,90.70
2022-10-31T07:42:41.378Z,90.70
2022-10-31T07:45:09.737Z,90.70
2022-10-31T07:47:43.879Z,90.70
2022-10-31T07:50:12.278Z,90.80
2022-10-31T07:52:38.959Z,90.70
2022-10-31T07:55:06.227Z,90.70
2022-10-31T07:57:34.661Z,90.80
2022-10-31T08:00:01.840Z,90.80
2022-10-31T08:02:28.545Z,90.80
2022-10-31T08:04:58.584Z,90.80
2022-10-31T08:07:28.066Z,90.80
2022-10-31T08:09:55.013Z,90.80
2022-10-31T08:12:21.775Z,90.80
2022-10-31T08:14:48.455Z,90.80
2022-10-31T08:17:15.159Z,90.80
2022-10-31T08:19:41.841Z,90.80
2022-10-31T08:22:08.515Z,90.70
2022-10-31T08:24:35.311Z,90.70
2022-10-31T08:27:02.061Z,90.70
2022-10-31T08:29:28.791Z,90.70
2022-10-31T08:31:55.483Z,90.60
2022-10-31T08:34:22.162Z,90.60
2022-10-31T08:36:48.829Z,90.60
2022-10-31T08:39:15.501Z,90.50
2022-10-31T08:41:42.258Z,90.50
2022-10-31T08:44:08.921Z,90.50
2022-10-31T08:46:35.953Z,90.50
2022-10-31T08:49:02.745Z,90.50
2022-10-31T08:51:29.410Z,90.50
2022-10-31T08:53:56.162Z,90.40
2022-10-31T08:56:22.824Z,90.30
2022-10-31T08:58:49.587Z,90.40
2022-10-31T09:01:16.381Z,90.30
2022-10-31T09:03:43.145Z,90.40
2022-10-31T09:06:09.902Z,90.30
2022-10-31T09:08:36.853Z,90.30
2022-10-31T09:11:04.488Z,90.30
2022-10-31T09:13:31.321Z,90.30
2022-10-31T09:15:58.068Z,90.30
2022-10-31T09:18:24.915Z,90.30
2022-10-31T09:20:51.878Z,90.30
2022-10-31T09:23:22.777Z,90.30
2022-10-31T09:25:51.218Z,90.30
2022-10-31T09:28:23.033Z,90.20
2022-10-31T09:30:53.552Z,89.80
2022-10-31T09:33:20.629Z,88.60
2022-10-31T09:35:47.343Z,87.00
2022-10-31T09:38:18.552Z,85.10
2022-10-31T09:40:51.472Z,83.10
2022-10-31T09:43:44.336Z,81.90
2022-10-31T09:46:14.195Z,79.70
2022-10-31T09:49:14.177Z,77.60
2022-10-31T09:51:43.464Z,75.00
2022-10-31T09:54:11.891Z,72.00
2022-10-31T09:56:38.580Z,69.70
2022-10-31T09:59:12.126Z,68.90
2022-10-31T10:02:14.425Z,68.20
2022-10-31T10:04:51.592Z,66.90
2022-10-31T10:07:23.969Z,66.10
2022-10-31T10:09:50.688Z,65.40
2022-10-31T10:12:30.714Z,67.60
2022-10-31T10:15:18.686Z,67.50
2022-10-31T10:18:11.343Z,67.10
2022-10-31T10:20:56.523Z,65.20
2022-10-31T10:23:29.106Z,66.50
2022-10-31T10:26:11.118Z,65.20
2022-10-31T10:28:39.601Z,65.60
2022-10-31T10:31:24.472Z,65.20
2022-10-31T10:34:03.058Z,63.60
2022-10-31T10:36:51.686Z,65.40
2022-10-31T10:39:39.424Z,66.10
2022-10-31T10:42:12.307Z,65.90
2022-10-31T10:44:41.178Z,64.60
2022-10-31T10:47:08.120Z,63.50
2022-10-31T10:49:37.975Z,62.60
2022-10-31T10:52:50.486Z,62.00
2022-10-31T10:55:22.953Z,61.40
2022-10-31T10:58:03.741Z,60.30
2022-10-31T11:00:44.186Z,59.90
2022-10-31T11:03:11.300Z,61.30
2022-10-31T11:05:38.129Z,61.80
2022-10-31T11:08:05.452Z,61.00
2022-10-31T11:10:32.227Z,59.20
2022-10-31T11:13:13.062Z,58.70
2022-10-31T11:16:02.794Z,58.40
2022-10-31T11:18:36.054Z,60.00
2022-10-31T11:21:03.373Z,61.90
2022-10-31T11:23:30.299Z,61.90
2022-10-31T11:25:57.017Z,62.90
2022-10-31T11:28:23.989Z,63.80
2022-10-31T11:30:56.850Z,64.70
2022-10-31T11:33:41.997Z,65.20
2022-10-31T11:36:19.380Z,65.50
2022-10-31T11:38:46.269Z,65.50
2022-10-31T11:41:33.482Z,65.80
2022-10-31T11:44:02.399Z,65.50
2022-10-31T11:46:42.236Z,64.50
2022-10-31T11:49:22.057Z,63.30
2022-10-31T11:51:53.620Z,61.50
2022-10-31T11:54:31.539Z,60.40
2022-10-31T11:56:58.220Z,59.70
2022-10-31T11:59:33.139Z,59.60
2022-10-31T12:02:01.384Z,59.60
2022-10-31T12:04:35.857Z,59.00
2022-10-31T12:07:02.622Z,58.40
2022-10-31T12:09:30.897Z,59.30
2022-10-31T12:12:11.169Z,59.80
2022-10-31T12:15:05.535Z,59.20
2022-10-31T12:17:53.511Z,58.80
2022-10-31T12:21:01.552Z,58.60
2022-10-31T12:23:47.015Z,59.10
2022-10-31T12:26:22.519Z,59.30
2022-10-31T12:29:01.282Z,60.00
2022-10-31T12:31:53.445Z,61.00
2022-10-31T12:34:48.850Z,61.40
2022-10-31T12:37:25.113Z,62.10
2022-10-31T12:39:58.486Z,62.60
2022-10-31T12:43:06.989Z,63.20
2022-10-31T12:45:58.581Z,63.30
2022-10-31T12:48:59.269Z,63.80
2022-10-31T12:51:46.426Z,64.00
2022-10-31T12:54:44.156Z,64.40
2022-10-31T12:57:32.850Z,64.60
2022-10-31T13:00:13.979Z,64.50
2022-10-31T13:02:54.449Z,64.70
2022-10-31T13:05:27.389Z,64.80
2022-10-31T13:08:00.726Z,64.80
2022-10-31T13:11:06.897Z,64.90
2022-10-31T13:13:50.214Z,65.00
2022-10-31T13:16:18.428Z,65.50
2022-10-31T13:19:14.491Z,65.80
2022-10-31T13:22:05.965Z,66.20
2022-10-31T13:24:46.043Z,66.60
2022-10-31T13:27:22.838Z,66.90
2022-10-31T13:30:01.457Z,67.00
2022-10-31T13:32:31.308Z,67.10
2022-10-31T13:34:58.158Z,67.30
2022-10-31T13:37:35.242Z,67.30
2022-10-31T13:40:20.429Z,67.40
2022-10-31T13:42:59.593Z,67.30
2022-10-31T13:45:26.839Z,67.60
2022-10-31T13:48:21.189Z,67.70
2022-10-31T13:51:01.634Z,67.70
2022-10-31T13:53:45.652Z,67.90
2022-10-31T13:56:23.386Z,67.70
2022-10-31T13:59:09.575Z,67.90
2022-10-31T14:01:36.467Z,67.90
2022-10-31T14:04:13.066Z,68.00
2022-10-31T14:06:40.479Z,68.20
2022-10-31T14:09:07.309Z,68.50
2022-10-31T14:11:37.093Z,68.60
2022-10-31T14:14:04.238Z,68.70
2022-10-31T14:16:31.815Z,68.80
2022-10-31T14:19:06.948Z,69.00
2022-10-31T14:21:43.604Z,69.00
2022-10-31T14:24:25.630Z,69.10
2022-10-31T14:26:59.117Z,69.10
2022-10-31T14:29:28.061Z,69.50
2022-10-31T14:31:56.606Z,69.50
2022-10-31T14:34:44.148Z,69.60
2022-10-31T14:37:31.905Z,69.60
2022-10-31T14:40:07.498Z,70.00
2022-10-31T14:43:19.455Z,69.90
2022-10-31T14:45:52.075Z,69.90
2022-10-31T14:48:27.861Z,70.00
2022-10-31T14:50:55.919Z,69.90
2022-10-31T14:53:37.092Z,70.10
2022-10-31T14:56:06.956Z,70.20
2022-10-31T14:58:39.517Z,70.30
2022-10-31T15:01:06.494Z,70.40
2022-10-31T15:03:37.603Z,70.40
2022-10-31T15:06:11.967Z,70.60
2022-10-31T15:08:44.935Z,70.70
2022-10-31T15:11:12.457Z,70.80
2022-10-31T15:13:46.355Z,70.80
2022-10-31T15:16:14.178Z,70.80
2022-10-31T15:18:49.847Z,70.90
2022-10-31T15:21:17.685Z,71.10
2022-10-31T15:23:44.393Z,71.30
2022-10-31T15:26:21.717Z,71.40
2022-10-31T15:28:59.293Z,71.60
2022-10-31T15:31:26.007Z,71.90
2022-10-31T15:33:52.726Z,72.00
2022-10-31T15:36:27.714Z,72.10
2022-10-31T15:38:59.332Z,72.30
2022-10-31T15:41:33.478Z,72.40
2022-10-31T15:44:27.953Z,72.60
2022-10-31T15:47:05.448Z,72.70
2022-10-31T15:49:36.335Z,73.00
2022-10-31T15:52:15.941Z,73.10
2022-10-31T15:54:53.168Z,73.30
2022-10-31T15:57:19.857Z,73.30
2022-10-31T15:59:48.246Z,73.50
2022-10-31T16:02:15.723Z,73.60
2022-10-31T16:04:59.189Z,73.70
2022-10-31T16:07:26.350Z,73.90
2022-10-31T16:09:58.971Z,74.00
2022-10-31T16:12:32.801Z,74.10
2022-10-31T16:14:59.509Z,74.20
2022-10-31T16:17:27.258Z,74.30
2022-10-31T16:19:54.066Z,74.50
2022-10-31T16:22:23.375Z,74.50
2022-10-31T16:25:20.784Z,74.70
2022-10-31T16:27:54.360Z,74.80
2022-10-31T16:30:36.618Z,74.90
2022-10-31T16:33:03.955Z,75.10
2022-10-31T16:35:38.663Z,75.00
2022-10-31T16:38:05.731Z,75.20
2022-10-31T16:40:32.554Z,75.10
2022-10-31T16:43:00.225Z,75.20
2022-10-31T16:45:32.221Z,75.20
2022-10-31T16:48:07.452Z,75.30
2022-10-31T16:50:34.540Z,75.40
2022-10-31T16:53:14.883Z,75.40
2022-10-31T16:55:44.340Z,75.40
2022-10-31T16:58:16.656Z,75.60
2022-10-31T17:00:45.917Z,75.60
2022-10-31T17:03:18.236Z,75.60
2022-10-31T17:05:46.880Z,75.70
2022-10-31T17:08:17.871Z,75.70
2022-10-31T17:10:49.785Z,75.70
2022-10-31T17:13:19.849Z,75.90
2022-10-31T17:15:48.081Z,75.90
2022-10-31T17:18:15.180Z,75.90
2022-10-31T17:20:41.875Z,76.00
2022-10-31T17:23:10.604Z,76.20
2022-10-31T17:25:37.293Z,76.20
2022-10-31T17:28:04.155Z,76.40
2022-10-31T17:30:31.462Z,76.60
2022-10-31T17:32:58.268Z,76.90
2022-10-31T17:35:25.111Z,77.10
2022-10-31T17:37:51.824Z,77.30
2022-10-31T17:40:19.905Z,77.70
2022-10-31T17:42:53.858Z,77.90
2022-10-31T17:45:20.846Z,78.20
2022-10-31T17:47:48.401Z,78.40
2022-10-31T17:50:16.399Z,78.40
2022-10-31T17:52:43.126Z,78.60
2022-10-31T17:55:10.232Z,78.70
2022-10-31T17:57:37.103Z,78.80
2022-10-31T18:00:04.762Z,79.00
2022-10-31T18:02:31.564Z,79.20
2022-10-31T18:04:58.321Z,79.30
2022-10-31T18:07:24.987Z,79.40
2022-10-31T18:09:51.647Z,79.60
2022-10-31T18:12:18.349Z,79.80
2022-10-31T18:14:48.436Z,79.80
2022-10-31T18:17:16.348Z,80.00
2022-10-31T18:19:43.911Z,80.20
2022-10-31T18:22:10.685Z,80.30
2022-10-31T18:24:37.361Z,80.40
2022-10-31T18:27:04.359Z,80.50
2022-10-31T18:29:31.207Z,80.60
2022-10-31T18:31:57.949Z,80.60
2022-10-31T18:34:24.766Z,80.80
2022-10-31T18:36:51.626Z,80.90
2022-10-31T18:39:18.298Z,81.00
2022-10-31T18:41:44.966Z,81.10
2022-10-31T18:44:11.754Z,81.20
2022-10-31T18:46:38.445Z,81.30
2022-10-31T18:49:05.283Z,81.40
2022-10-31T18:51:37.055Z,81.60
2022-10-31T18:54:04.016Z,81.70
2022-10-31T18:56:31.366Z,81.80
2022-10-31T18:59:01.278Z,81.80
2022-10-31T19:01:28.332Z,81.90
2022-10-31T19:03:57.746Z,82.00
2022-10-31T19:06:25.117Z,82.10
2022-10-31T19:09:00.671Z,82.20
2022-10-31T19:11:28.180Z,82.30
2022-10-31T19:13:54.860Z,82.30
2022-10-31T19:16:21.541Z,82.40
2022-10-31T19:18:48.208Z,82.50
2022-10-31T19:21:18.149Z,82.60
2022-10-31T19:23:45.177Z,82.70
2022-10-31T19:26:12.326Z,82.70
2022-10-31T19:28:39.706Z,82.80
2022-10-31T19:31:06.811Z,83.00
2022-10-31T19:33:36.125Z,83.00
2022-10-31T19:36:09.344Z,83.10
2022-10-31T19:38:36.900Z,83.20
2022-10-31T19:41:12.064Z,83.30
2022-10-31T19:43:38.768Z,83.50
2022-10-31T19:46:05.882Z,83.30
2022-10-31T19:48:32.589Z,83.50
2022-10-31T19:51:03.910Z,83.50
2022-10-31T19:53:30.930Z,83.60
2022-10-31T19:56:00.477Z,83.60
2022-10-31T19:58:27.376Z,83.80
2022-10-31T20:00:54.288Z,83.80
2022-10-31T20:03:22.597Z,83.80
2022-10-31T20:05:49.739Z,83.80
2022-10-31T20:08:19.583Z,83.80
2022-10-31T20:10:59.947Z,84.00
2022-10-31T20:13:27.134Z,84.20
2022-10-31T20:15:58.394Z,84.00
2022-10-31T20:18:25.087Z,84.30
2022-10-31T20:20:52.246Z,84.30
2022-10-31T20:23:20.388Z,84.30
2022-10-31T20:25:50.458Z,84.40
2022-10-31T20:28:17.208Z,84.50
2022-10-31T20:30:44.057Z,84.50
2022-10-31T20:33:10.873Z,84.50
2022-10-31T20:35:38.552Z,84.70
2022-10-31T20:38:05.468Z,84.70
2022-10-31T20:40:32.415Z,84.70
2022-10-31T20:42:59.132Z,84.80
2022-10-31T20:45:25.819Z,84.80
2022-10-31T20:47:53.787Z,84.90
2022-10-31T20:50:20.624Z,84.90
2022-10-31T20:52:47.454Z,84.90
2022-10-31T20:55:14.449Z,84.90
2022-10-31T20:57:41.145Z,84.90
2022-10-31T21:00:08.500Z,85.00
2022-10-31T21:02:35.216Z,85.10
2022-10-31T21:05:01.945Z,85.10
2022-10-31T21:07:30.931Z,85.20
2022-10-31T21:09:57.594Z,85.20
2022-10-31T21:12:24.249Z,85.30
2022-10-31T21:14:50.969Z,85.30
2022-10-31T21:17:17.640Z,85.30
2022-10-31T21:19:44.360Z,85.30
2022-10-31T21:22:11.025Z,85.40
2022-10-31T21:24:37.733Z,85.40
2022-10-31T21:27:07.312Z,85.50
2022-10-31T21:29:40.415Z,85.50
2022-10-31T21:32:07.401Z,85.50
2022-10-31T21:34:37.362Z,85.70
2022-10-31T21:37:07.196Z,85.70
2022-10-31T21:39:34.022Z,85.70
2022-10-31T21:42:01.334Z,85.70
2022-10-31T21:44:28.524Z,85.80
2022-10-31T21:46:55.639Z,85.90
2022-10-31T21:49:22.476Z,85.90
2022-10-31T21:51:49.169Z,85.90
2022-10-31T21:54:15.866Z,86.00
2022-10-31T21:56:42.741Z,86.00
2022-10-31T21:59:09.607Z,86.10
2022-10-31T22:01:36.562Z,86.20
2022-10-31T22:04:03.590Z,86.30
2022-10-31T22:06:30.254Z,86.30
2022-10-31T22:08:58.583Z,86.40
2022-10-31T22:11:25.280Z,86.40
2022-10-31T22:13:51.940Z,86.40
2022-10-31T22:16:20.073Z,86.50
2022-10-31T22:18:47.145Z,86.60
2022-10-31T22:21:15.438Z,86.70
2022-10-31T22:23:42.234Z,86.70
2022-10-31T22:26:14.066Z,86.70
2022-10-31T22:28:46.312Z,86.80
2022-10-31T22:31:17.718Z,86.80
2022-10-31T22:33:45.857Z,86.90
2022-10-31T22:36:15.930Z,87.00
2022-10-31T22:38:42.660Z,87.10
2022-10-31T22:41:19.811Z,87.20
2022-10-31T22:43:49.224Z,87.30
2022-10-31T22:46:20.728Z,87.30
2022-10-31T22:48:51.001Z,87.40
2022-10-31T22:51:22.434Z,88.20
2022-10-31T22:53:50.003Z,87.50
2022-10-31T22:56:20.750Z,87.60
2022-10-31T22:58:50.852Z,87.70
2022-10-31T23:01:22.629Z,87.70
2022-10-31T23:03:50.600Z,87.60
2022-10-31T23:06:19.426Z,87.60
2022-10-31T23:08:46.749Z,87.70
2022-10-31T23:11:36.004Z,87.70
2022-10-31T23:14:16.161Z,87.60
2022-10-31T23:16:52.444Z,87.60
2022-10-31T23:19:27.043Z,87.40
2022-10-31T23:21:59.288Z,87.30
2022-10-31T23:24:31.999Z,87.20
2022-10-31T23:26:59.946Z,87.10
2022-10-31T23:29:26.694Z,87.30
2022-10-31T23:31:53.428Z,87.40
2022-10-31T23:34:21.225Z,87.50
2022-10-31T23:36:48.208Z,87.60
2022-10-31T23:39:14.981Z,87.50
2022-10-31T23:41:41.655Z,87.50
2022-10-31T23:44:08.365Z,87.40
2022-10-31T23:46:35.044Z,87.50
2022-10-31T23:49:01.836Z,87.60
2022-10-31T23:51:28.513Z,87.60
2022-10-31T23:53:55.187Z,87.50
2022-10-31T23:56:23.289Z,87.50
2022-10-31T23:58:50.019Z,87.50
